METAR Data
IDs: Format: Raw Decoded Include TAF

Data at: 0135 UTC 06 Dec 2019

KGGE 060135Z AUTO 00000KT 10SM CLR 03/02 A3022 RMK AO2
KGGE 060115Z AUTO 00000KT 10SM CLR 04/03 A3021 RMK AO2
KGGE 060055Z AUTO 00000KT 10SM CLR 05/03 A3020 RMK AO2
KGGE 060035Z AUTO 00000KT 10SM CLR 04/03 A3020 RMK AO2
KGGE 060015Z AUTO 00000KT 10SM CLR 05/03 A3019 RMK AO2
KGGE 052355Z AUTO 00000KT 10SM CLR 05/03 A3019 RMK AO2
KGGE 052335Z AUTO 00000KT 10SM CLR 06/04 A3018 RMK AO2
KGGE 052315Z AUTO 00000KT 10SM CLR 08/04 A3016 RMK AO2
KGGE 052255Z AUTO 00000KT 10SM CLR 08/04 A3016 RMK AO2
KGGE 052235Z AUTO 00000KT 10SM CLR 10/04 A3015 RMK AO2
KGGE 052215Z AUTO 00000KT 10SM CLR 10/04 A3014 RMK AO2
KGGE 052155Z AUTO 14003KT 10SM CLR 11/03 A3013 RMK AO2
KGGE 052135Z AUTO 13004KT 10SM CLR 13/03 A3012 RMK AO2
KGGE 052115Z AUTO 12005KT 10SM CLR 13/03 A3011 RMK AO2
KGGE 052055Z AUTO 14003KT 10SM CLR 16/02 A3011 RMK AO2
KGGE 052035Z AUTO 31004KT 10SM CLR 17/M02 A3009 RMK AO2
KGGE 052015Z AUTO 00000KT 10SM CLR 17/M01 A3009 RMK AO2
KGGE 051955Z AUTO 29003KT 10SM CLR 17/M01 A3008 RMK AO2
KGGE 051935Z AUTO 32006KT 10SM CLR 17/M01 A3008 RMK AO2
KGGE 051915Z AUTO 28003KT 10SM CLR 16/M01 A3009 RMK AO2
KGGE 051855Z AUTO 09003KT 10SM CLR 16/00 A3009 RMK AO2
KGGE 051835Z AUTO 32003KT 10SM CLR 16/M01 A3009 RMK AO2
KGGE 051815Z AUTO 00000KT 10SM CLR 16/M01 A3009 RMK AO2
KGGE 051755Z AUTO 00000KT 10SM CLR 15/M01 A3010 RMK AO2
KGGE 051735Z AUTO 36003KT 10SM CLR 16/00 A3010 RMK AO2
KGGE 051715Z AUTO 05003KT 10SM CLR 15/M01 A3011 RMK AO2
KGGE 051655Z AUTO 01004KT 10SM CLR 15/M01 A3011 RMK AO2
KGGE 051635Z AUTO 32003KT 10SM CLR 15/M01 A3012 RMK AO2
KGGE 051615Z AUTO 35005KT 10SM CLR 15/M01 A3012 RMK AO2
KGGE 051555Z AUTO 33005KT 10SM CLR 13/M01 A3012 RMK AO2
KGGE 051535Z AUTO 31005KT 10SM CLR 12/00 A3012 RMK AO2
KGGE 051515Z AUTO 31004KT 10SM CLR 11/00 A3012 RMK AO2
KGGE 051455Z AUTO 33006KT 10SM CLR 11/M01 A3011 RMK AO2
KGGE 051435Z AUTO 32007KT 10SM CLR 11/00 A3010 RMK AO2
KGGE 051415Z AUTO 31003KT 10SM CLR 10/00 A3009 RMK AO2
KGGE 051355Z AUTO 31006KT 10SM CLR 09/00 A3007 RMK AO2
KGGE 051335Z AUTO 30005KT 10SM CLR 09/00 A3006 RMK AO2
KGGE 051315Z AUTO 27004KT 10SM CLR 07/01 A3006 RMK AO2
KGGE 051255Z AUTO 29003KT 10SM CLR 06/00 A3004 RMK AO2
KGGE 051235Z AUTO 27004KT 10SM CLR 05/00 A3004 RMK AO2
KGGE 051215Z AUTO 28004KT 10SM CLR 05/00 A3003 RMK AO2
KGGE 051155Z AUTO 28004KT 10SM CLR 05/00 A3001 RMK AO2
KGGE 051135Z AUTO 28005KT 10SM CLR 05/01 A3000 RMK AO2
KGGE 051115Z AUTO 27005KT 10SM CLR 04/00 A2999 RMK AO2
KGGE 051055Z AUTO 27005KT 10SM CLR 04/00 A2998 RMK AO2
KGGE 051035Z AUTO 26004KT 10SM CLR 05/01 A2996 RMK AO2
KGGE 051015Z AUTO 27006KT 10SM CLR 05/01 A2995 RMK AO2
KGGE 050955Z AUTO 28005KT 10SM CLR 05/01 A2994 RMK AO2
KGGE 050935Z AUTO 27005KT 10SM CLR 05/01 A2993 RMK AO2
KGGE 050915Z AUTO 28004KT 10SM CLR 06/01 A2993 RMK AO2
KGGE 050855Z AUTO 26005KT 10SM CLR 06/01 A2992 RMK AO2
KGGE 050835Z AUTO 27004KT 10SM CLR 06/01 A2991 RMK AO2
KGGE 050815Z AUTO 26006KT 10SM CLR 06/01 A2991 RMK AO2
KGGE 050755Z AUTO 26006KT 10SM CLR 06/01 A2990 RMK AO2
KGGE 050735Z AUTO 25005KT 10SM CLR 05/01 A2990 RMK AO2
KGGE 050715Z AUTO 25005KT 10SM CLR 05/01 A2990 RMK AO2
KGGE 050655Z AUTO 24006KT 10SM CLR 04/01 A2990 RMK AO2
KGGE 050635Z AUTO 25004KT 10SM CLR 06/01 A2989 RMK AO2
KGGE 050615Z AUTO 25004KT 10SM CLR 06/01 A2989 RMK AO2
KGGE 050555Z AUTO 26004KT 10SM CLR 07/01 A2989 RMK AO2
KGGE 050535Z AUTO 26005KT 10SM CLR 07/01 A2988 RMK AO2
KGGE 050515Z AUTO 26006KT 10SM CLR 07/01 A2988 RMK AO2
KGGE 050455Z AUTO 26007KT 10SM CLR 08/01 A2988 RMK AO2
KGGE 050435Z AUTO 25007KT 10SM CLR 08/01 A2988 RMK AO2
KGGE 050415Z AUTO 25007KT 10SM CLR 08/01 A2988 RMK AO2
KGGE 050355Z AUTO 25007KT 10SM CLR 08/01 A2988 RMK AO2
KGGE 050335Z AUTO 24006KT 10SM CLR 08/01 A2988 RMK AO2
KGGE 050315Z AUTO 24005KT 10SM CLR 07/02 A2987 RMK AO2
KGGE 050255Z AUTO 24005KT 10SM CLR 07/02 A2987 RMK AO2
KGGE 050235Z AUTO 24005KT 10SM CLR 06/02 A2987 RMK AO2
KGGE 050215Z AUTO 24004KT 10SM CLR 06/01 A2986 RMK AO2
KGGE 050155Z AUTO 25003KT 10SM CLR 05/01 A2985 RMK AO2
KGGE 050135Z AUTO 24004KT 10SM CLR 04/02 A2985 RMK AO2
KGGE 050115Z AUTO 24004KT 10SM CLR 04/02 A2985 RMK AO2
KGGE 050055Z AUTO 00000KT 10SM CLR 04/02 A2984 RMK AO2
KGGE 050035Z AUTO 00000KT 10SM CLR 05/02 A2984 RMK AO2
KGGE 050015Z AUTO 00000KT 10SM CLR 05/02 A2983 RMK AO2
KGGE 042355Z AUTO 00000KT 10SM CLR 06/02 A2983 RMK AO2
KGGE 042335Z AUTO 23003KT 10SM CLR 06/02 A2982 RMK AO2
KGGE 042315Z AUTO 24004KT 10SM CLR 06/02 A2982 RMK AO2
KGGE 042255Z AUTO 00000KT 10SM CLR 07/02 A2981 RMK AO2
KGGE 042235Z AUTO 26003KT 10SM CLR 10/01 A2980 RMK AO2
KGGE 042215Z AUTO 27004KT 10SM CLR 11/00 A2980 RMK AO2
KGGE 042155Z AUTO 00000KT 10SM CLR 12/00 A2979 RMK AO2
KGGE 042135Z AUTO 27005KT 10SM CLR 13/00 A2979 RMK AO2
KGGE 042115Z AUTO 26004KT 10SM CLR 13/00 A2978 RMK AO2
KGGE 042055Z AUTO 28006KT 10SM CLR 13/M01 A2977 RMK AO2
KGGE 042035Z AUTO 28012G17KT 10SM CLR 14/M02 A2977 RMK AO2
KGGE 042015Z AUTO 27012KT 10SM CLR 15/M02 A2977 RMK AO2
KGGE 041955Z AUTO 28010G16KT 10SM CLR 15/M02 A2977 RMK AO2
KGGE 041935Z AUTO 27007KT 10SM CLR 15/M01 A2976 RMK AO2
KGGE 041915Z AUTO 26009KT 10SM CLR 15/M01 A2976 RMK AO2
KGGE 041855Z AUTO 28005KT 10SM CLR 14/M01 A2976 RMK AO2
KGGE 041835Z AUTO 27008KT 10SM CLR 13/M01 A2977 RMK AO2
KGGE 041815Z AUTO 27004KT 10SM CLR 13/M01 A2977 RMK AO2
KGGE 041755Z AUTO 28006KT 10SM CLR 13/M01 A2978 RMK AO2
KGGE 041735Z AUTO 25004KT 10SM CLR 13/00 A2979 RMK AO2
KGGE 041715Z AUTO 29004KT 10SM CLR 12/00 A2981 RMK AO2
KGGE 041655Z AUTO 27007KT 10SM CLR 12/00 A2983 RMK AO2
KGGE 041635Z AUTO 31006KT 10SM CLR 11/00 A2983 RMK AO2
KGGE 041615Z AUTO 28007KT 10SM CLR 11/01 A2984 RMK AO2
KGGE 041555Z AUTO 30006KT 10SM CLR 10/01 A2985 RMK AO2
KGGE 041535Z AUTO 28007KT 10SM CLR 09/01 A2986 RMK AO2
KGGE 041515Z AUTO 28009KT 10SM CLR 08/02 A2986 RMK AO2
KGGE 041455Z AUTO 30008KT 10SM CLR 07/02 A2985 RMK AO2
KGGE 041435Z AUTO 27006KT 10SM CLR 06/02 A2984 RMK AO2
KGGE 041415Z AUTO 28005KT 10SM CLR 06/02 A2983 RMK AO2
KGGE 041355Z AUTO 29003KT 10SM CLR 05/02 A2983 RMK AO2